Time;durP1;ratioP1;P1;durP2;ratioP2;P2;SDS_P1;SDS_P2;PMS_P1;PMS_P2;Temp;Humidity;BMP_temperature;BMP_pressure;BME280_temperature;BME280_humidity;BME280_pressure;Samples;Min_cycle;Max_cycle;Signal;HPM_P1;HPM_P2
2023/03/06 00:00:27;;;;;;;;;4.00;3.75;;;;;20.97;36.28;100990.00;5040440;28;47283;-73
2023/03/06 00:02:52;;;;;;;;;5.50;5.00;;;;;20.99;36.20;100995.09;5036427;28;45434;-74
2023/03/06 00:05:18;;;;;;;;;7.50;4.75;;;;;20.92;36.18;100976.44;5045917;28;45616;-74
2023/03/06 00:07:44;;;;;;;;;4.00;4.00;;;;;20.94;36.47;100987.69;5036945;28;45410;-74
2023/03/06 00:10:13;;;;;;;;;5.25;5.25;;;;;20.98;36.48;100991.63;5035489;28;45430;-74
2023/03/06 00:12:39;;;;;;;;;6.50;6.25;;;;;20.97;36.48;100995.28;5035697;28;45252;-74
2023/03/06 00:15:05;;;;;;;;;6.00;4.25;;;;;20.96;35.97;100983.88;5032837;28;45627;-74
2023/03/06 00:17:30;;;;;;;;;4.25;3.75;;;;;20.97;36.19;100995.28;5034846;28;45288;-74
2023/03/06 00:19:56;;;;;;;;;5.25;5.25;;;;;20.97;35.82;100987.34;5035276;28;46154;-74
2023/03/06 00:22:21;;;;;;;;;6.50;6.00;;;;;20.91;36.02;100969.50;5035445;28;45462;-73
2023/03/06 00:24:46;;;;;;;;;6.00;6.00;;;;;20.98;35.99;100972.28;5014011;28;46017;-73
2023/03/06 00:27:12;;;;;;;;;6.50;6.00;;;;;20.97;36.24;100974.13;5033507;28;45354;-74
2023/03/06 00:29:37;;;;;;;;;5.00;5.00;;;;;20.97;35.98;100968.84;5034752;28;46209;-73
2023/03/06 00:32:03;;;;;;;;;5.75;4.00;;;;;20.92;36.08;100956.09;5034621;28;45386;-74
2023/03/06 00:34:28;;;;;;;;;5.00;5.00;;;;;20.97;36.14;100963.53;5038907;28;45430;-74
2023/03/06 00:36:53;;;;;;;;;7.00;6.00;;;;;20.96;35.85;100967.16;5037371;28;45392;-74
2023/03/06 00:39:20;;;;;;;;;6.25;5.25;;;;;20.96;35.73;100965.34;5034236;28;47456;-74
2023/03/06 00:41:46;;;;;;;;;4.75;4.50;;;;;20.95;35.96;100962.88;5034631;28;45442;-73
2023/03/06 00:44:11;;;;;;;;;5.50;5.00;;;;;20.95;35.92;100966.34;5024835;28;45352;-73
2023/03/06 00:46:36;;;;;;;;;4.00;4.00;;;;;20.96;35.88;100964.53;5032842;28;45335;-74
2023/03/06 00:49:02;;;;;;;;;6.00;6.00;;;;;20.96;35.96;100967.16;5035231;28;46052;-74
2023/03/06 00:51:27;;;;;;;;;5.00;5.00;;;;;20.97;35.87;100971.47;5034549;28;45502;-74
2023/03/06 00:53:53;;;;;;;;;9.50;6.75;;;;;20.96;35.81;100968.00;5034822;28;45382;-74
2023/03/06 00:56:18;;;;;;;;;7.25;5.50;;;;;20.95;35.87;100970.78;5034071;28;45429;-74
2023/03/06 00:58:44;;;;;;;;;5.00;4.00;;;;;20.97;35.55;100960.91;5034755;28;46173;-74
2023/03/06 01:01:10;;;;;;;;;7.50;6.00;;;;;20.96;35.76;100968.00;5034628;28;45284;-74
2023/03/06 01:03:35;;;;;;;;;5.50;5.50;;;;;20.98;35.83;100967.00;5035332;28;45661;-73
2023/03/06 01:06:00;;;;;;;;;5.25;5.25;;;;;20.98;35.82;100959.06;5036249;28;45490;-74
2023/03/06 01:08:26;;;;;;;;;7.75;6.00;;;;;20.96;35.89;100953.94;5037115;28;46293;-74
2023/03/06 01:10:51;;;;;;;;;6.50;5.25;;;;;20.95;36.10;100953.13;5038231;28;45477;-74
2023/03/06 01:13:16;;;;;;;;;6.50;6.50;;;;;20.95;35.68;100952.28;5038602;28;45429;-74
2023/03/06 01:15:42;;;;;;;;;3.50;3.50;;;;;20.96;35.87;100956.59;5025175;28;45506;-74
2023/03/06 01:18:07;;;;;;;;;6.00;5.00;;;;;20.95;35.53;100949.63;5038284;28;46054;-74
2023/03/06 01:20:32;;;;;;;;;6.50;6.50;;;;;20.94;36.05;100953.28;5041517;28;45434;-74
2023/03/06 01:22:58;;;;;;;;;3.50;3.00;;;;;20.94;35.73;100943.53;5038344;28;45423;-74
2023/03/06 01:25:24;;;;;;;;;4.75;4.75;;;;;20.94;35.72;100946.19;5038192;28;45454;-73
2023/03/06 01:27:50;;;;;;;;;6.00;6.00;;;;;20.93;35.71;100949.00;5037937;28;47248;-74
2023/03/06 01:30:16;;;;;;;;;5.25;5.00;;;;;20.93;35.62;100941.06;5037752;28;45490;-73
2023/03/06 01:32:41;;;;;;;;;5.00;4.00;;;;;20.92;35.58;100940.22;5037864;28;45516;-74
2023/03/06 01:35:07;;;;;;;;;4.00;4.00;;;;;20.93;35.82;100941.06;5037733;28;45670;-74
2023/03/06 01:37:35;;;;;;;;;5.50;5.50;;;;;20.91;35.55;100929.81;5041858;28;46317;-73
2023/03/06 01:40:00;;;;;;;;;5.50;5.50;;;;;20.92;35.43;100934.13;5037094;28;45411;-74
2023/03/06 01:42:26;;;;;;;;;4.25;4.25;;;;;20.91;35.79;100932.47;5044447;28;45551;-73
2023/03/06 01:44:57;;;;;;;;;6.00;5.50;;;;;20.91;35.45;100927.19;5047209;28;45322;-74
2023/03/06 01:47:22;;;;;;;;;3.75;2.75;;;;;20.90;35.61;100925.53;5043618;28;46473;-73
2023/03/06 01:49:48;;;;;;;;;6.00;5.00;;;;;20.84;35.39;100913.81;5039913;28;45370;-74
2023/03/06 01:52:20;;;;;;;;;5.50;5.50;;;;;20.79;35.43;100901.09;5042203;28;45752;-74
2023/03/06 01:54:48;;;;;;;;;5.50;3.25;;;;;20.80;35.30;100904.56;5038890;28;45418;-73
2023/03/06 01:57:20;;;;;;;;;6.00;5.00;;;;;20.90;35.17;100912.28;5037336;28;46316;-73
2023/03/06 01:59:51;;;;;;;;;7.25;5.00;;;;;20.89;35.68;100908.03;5037292;28;45310;-74
2023/03/06 02:02:17;;;;;;;;;4.25;4.25;;;;;20.88;35.61;100907.19;5037637;28;45375;-73
2023/03/06 02:04:44;;;;;;;;;6.00;5.00;;;;;20.88;35.86;100901.91;5037160;28;45574;-74
2023/03/06 02:07:10;;;;;;;;;5.00;5.00;;;;;20.83;35.52;100891.00;5036971;28;46417;-74
2023/03/06 02:09:37;;;;;;;;;6.00;4.75;;;;;20.87;35.58;100894.94;5037226;28;45541;-73
2023/03/06 02:12:08;;;;;;;;;5.50;5.50;;;;;20.87;35.57;100894.16;5037589;28;45292;-74
2023/03/06 02:14:34;;;;;;;;;8.25;5.00;;;;;20.87;35.80;100892.31;5030442;28;45349;-73
2023/03/06 02:16:59;;;;;;;;;4.75;4.75;;;;;20.88;35.31;100893.13;5030683;28;46282;-75
2023/03/06 02:19:34;;;;;;;;;4.25;4.25;;;;;20.80;35.23;100881.59;5044776;28;45319;-73
2023/03/06 02:22:01;;;;;;;;;3.75;3.75;;;;;20.86;35.48;100890.69;5038324;28;45367;-74
2023/03/06 02:24:32;;;;;;;;;4.75;4.75;;;;;20.86;35.42;100880.09;5043260;28;45476;-73
2023/03/06 02:27:01;;;;;;;;;6.25;6.25;;;;;20.84;35.52;100869.66;5041256;28;46298;-73
2023/03/06 02:29:29;;;;;;;;;4.75;4.25;;;;;20.87;35.25;100870.34;5037094;28;45351;-73
2023/03/06 02:31:55;;;;;;;;;6.50;4.75;;;;;20.86;35.16;100874.81;5037044;28;45466;-73
2023/03/06 02:34:20;;;;;;;;;7.00;4.25;;;;;20.86;35.69;100866.88;5039136;28;45505;-73
2023/03/06 02:36:57;;;;;;;;;6.00;5.50;;;;;20.88;35.17;100871.97;5039804;28;45567;-74
2023/03/06 02:39:25;;;;;;;;;4.75;4.00;;;;;20.87;35.50;100859.78;5036633;28;45367;-73
2023/03/06 02:41:50;;;;;;;;;5.00;5.00;;;;;20.83;35.19;100849.53;5036834;28;45447;-73
2023/03/06 02:44:16;;;;;;;;;4.25;3.75;;;;;20.87;35.08;100859.78;5019488;28;45449;-73
2023/03/06 02:46:41;;;;;;;;;7.50;5.00;;;;;20.79;35.39;100842.13;5043507;28;46119;-73
2023/03/06 02:49:06;;;;;;;;;5.00;5.00;;;;;20.85;35.41;100842.25;5036807;28;45359;-73
2023/03/06 02:51:32;;;;;;;;;5.25;4.00;;;;;20.83;35.38;100841.59;5036301;28;45236;-74
2023/03/06 02:53:57;;;;;;;;;5.00;5.00;;;;;20.81;35.10;100837.47;5037154;28;45471;-74
2023/03/06 02:56:22;;;;;;;;;6.50;5.00;;;;;20.84;35.17;100837.94;5037069;28;46053;-73
2023/03/06 02:58:48;;;;;;;;;5.25;5.00;;;;;20.85;35.31;100842.25;5036776;28;45284;-74
2023/03/06 03:01:14;;;;;;;;;4.25;4.25;;;;;20.84;35.27;100832.66;5036681;28;45321;-73
2023/03/06 03:03:39;;;;;;;;;7.00;6.00;;;;;20.73;35.18;100820.66;5036912;28;45217;-73
2023/03/06 03:06:05;;;;;;;;;3.00;3.00;;;;;20.84;35.31;100829.22;5035707;28;45502;-74
2023/03/06 03:08:31;;;;;;;;;4.50;4.50;;;;;20.85;35.04;100836.13;5036246;28;45412;-73
2023/03/06 03:10:57;;;;;;;;;5.50;5.00;;;;;20.83;35.01;100831.03;5036625;28;45432;-73
2023/03/06 03:13:23;;;;;;;;;5.50;5.00;;;;;20.75;35.38;100817.81;5036493;28;45377;-73
2023/03/06 03:16:06;;;;;;;;;3.25;3.25;;;;;20.79;35.44;100823.59;5031657;28;45470;-73
2023/03/06 03:18:32;;;;;;;;;8.00;6.25;;;;;20.75;35.38;100801.97;5035820;28;45441;-74
2023/03/06 03:20:58;;;;;;;;;6.25;4.75;;;;;20.82;35.26;100802.09;5036519;28;45469;-73
2023/03/06 03:23:24;;;;;;;;;5.50;5.50;;;;;20.82;34.96;100800.28;5035881;28;45363;-73
2023/03/06 03:25:50;;;;;;;;;5.75;4.75;;;;;20.82;35.37;100802.09;5036214;28;45529;-73
2023/03/06 03:28:16;;;;;;;;;6.00;4.00;;;;;20.80;35.19;100790.88;5036418;28;45429;-73
2023/03/06 03:30:42;;;;;;;;;6.25;6.25;;;;;20.82;34.99;100807.38;5035037;28;45430;-74
2023/03/06 03:33:07;;;;;;;;;5.00;5.00;;;;;20.81;35.30;100811.03;5035881;28;45395;-73
2023/03/06 03:35:33;;;;;;;;;4.00;4.00;;;;;20.75;35.13;100799.31;5041115;28;45459;-73
2023/03/06 03:37:58;;;;;;;;;3.75;3.00;;;;;20.79;35.22;100811.19;5035923;28;45482;-73
2023/03/06 03:40:23;;;;;;;;;4.50;4.50;;;;;20.79;35.35;100807.75;5035813;28;45243;-73
2023/03/06 03:42:49;;;;;;;;;5.00;5.00;;;;;20.79;35.02;100810.38;5046235;28;45466;-73
2023/03/06 03:45:14;;;;;;;;;4.75;4.00;;;;;20.78;34.91;100798.97;5036047;28;45466;-73
2023/03/06 03:47:40;;;;;;;;;4.50;4.50;;;;;20.77;34.98;100799.97;5035154;28;45478;-73
2023/03/06 03:50:06;;;;;;;;;5.25;5.00;;;;;20.79;35.22;100789.22;5035661;28;45886;-73
2023/03/06 03:52:32;;;;;;;;;4.25;4.25;;;;;20.79;34.85;100789.22;5035928;28;45564;-73
2023/03/06 03:54:57;;;;;;;;;5.00;5.00;;;;;20.78;34.89;100784.94;5035026;28;46019;-73
2023/03/06 03:57:22;;;;;;;;;6.00;4.75;;;;;20.79;34.81;100786.59;5035843;28;45348;-73
2023/03/06 03:59:48;;;;;;;;;6.00;4.25;;;;;20.79;35.11;100782.09;5031386;28;45439;-73
2023/03/06 04:02:13;;;;;;;;;6.25;5.00;;;;;20.79;34.69;100776.00;5035725;28;45383;-73
2023/03/06 04:04:39;;;;;;;;;7.25;4.75;;;;;20.69;35.19;100766.47;5034905;28;46510;-73
2023/03/06 04:07:04;;;;;;;;;5.50;5.50;;;;;20.79;34.96;100776.81;5035875;28;45485;-73
2023/03/06 04:09:29;;;;;;;;;6.25;6.25;;;;;20.80;34.97;100775.81;5043800;28;45696;-74
2023/03/06 04:11:55;;;;;;;;;2.50;1.50;;;;;20.80;34.91;100775.81;5014786;28;45489;-73
2023/03/06 04:14:20;;;;;;;;;3.75;3.75;;;;;20.72;35.06;100755.53;5028735;28;46345;-73
2023/03/06 04:16:46;;;;;;;;;8.50;5.00;;;;;20.80;34.69;100769.72;5035839;28;45351;-73
2023/03/06 04:19:11;;;;;;;;;6.00;5.50;;;;;20.78;35.09;100761.97;5036547;28;45478;-73
2023/03/06 04:21:37;;;;;;;;;4.00;4.00;;;;;20.79;35.03;100762.78;5035882;28;45245;-74
2023/03/06 04:24:02;;;;;;;;;4.75;3.75;;;;;20.80;34.79;100773.19;5037395;28;45447;-73
2023/03/06 04:26:27;;;;;;;;;4.00;4.00;;;;;20.78;35.06;100767.25;5022094;28;45473;-73
2023/03/06 04:28:54;;;;;;;;;3.75;3.00;;;;;20.78;35.20;100761.97;5034040;28;45217;-74
2023/03/06 04:31:20;;;;;;;;;4.00;4.00;;;;;20.79;35.10;100765.44;5034502;28;45219;-73
2023/03/06 04:33:45;;;;;;;;;5.00;3.00;;;;;20.78;35.13;100761.97;5034787;28;45834;-74
2023/03/06 04:36:24;;;;;;;;;5.00;5.00;;;;;20.76;35.07;100755.19;5035838;28;45343;-73
2023/03/06 04:38:50;;;;;;;;;4.50;4.50;;;;;20.75;34.86;100754.38;5031904;28;45365;-73
2023/03/06 04:41:15;;;;;;;;;2.50;2.50;;;;;20.77;34.86;100762.94;5047061;28;46469;-73
2023/03/06 04:43:40;;;;;;;;;4.50;4.50;;;;;20.78;34.87;100769.91;5038479;28;46305;-74
2023/03/06 04:46:05;;;;;;;;;5.25;4.00;;;;;20.78;35.00;100764.59;5038514;28;45544;-74
2023/03/06 04:48:31;;;;;;;;;5.00;5.00;;;;;20.78;35.14;100774.34;5025555;28;45375;-73
2023/03/06 04:50:56;;;;;;;;;4.00;4.00;;;;;20.44;34.94;100718.19;5038848;28;45224;-73
2023/03/06 04:53:21;;;;;;;;;4.75;4.75;;;;;20.70;35.09;100754.06;5038445;28;45386;-73
2023/03/06 04:55:47;;;;;;;;;4.75;4.00;;;;;20.74;34.93;100764.13;5038535;28;45374;-73
2023/03/06 04:58:13;;;;;;;;;3.00;3.00;;;;;20.76;34.54;100760.50;5041524;28;45380;-73
2023/03/06 05:00:38;;;;;;;;;8.00;5.50;;;;;20.76;35.12;100760.50;5045033;28;45299;-74
2023/03/06 05:03:03;;;;;;;;;5.00;3.75;;;;;20.74;35.04;100761.47;5045473;28;46288;-73
2023/03/06 05:05:29;;;;;;;;;5.25;4.00;;;;;20.74;34.64;100758.84;5038845;28;45545;-73
2023/03/06 05:07:55;;;;;;;;;6.00;6.00;;;;;20.66;34.97;100748.28;5038433;28;45432;-73
2023/03/06 05:10:21;;;;;;;;;5.75;5.00;;;;;20.73;34.70;100759.03;5037842;28;45426;-74
2023/03/06 05:12:46;;;;;;;;;4.50;4.00;;;;;20.75;34.71;100762.31;5040100;28;46197;-73
2023/03/06 05:15:12;;;;;;;;;4.25;4.25;;;;;20.61;34.96;100737.41;5038301;28;45501;-73
2023/03/06 05:17:38;;;;;;;;;4.25;4.25;;;;;20.66;34.63;100743.00;5050492;28;45490;-74
2023/03/06 05:20:05;;;;;;;;;6.50;4.25;;;;;20.73;34.58;100754.56;5040962;28;45462;-73
2023/03/06 05:22:32;;;;;;;;;4.75;4.75;;;;;20.73;34.75;100751.09;5038508;28;46211;-73
2023/03/06 05:24:58;;;;;;;;;6.75;5.50;;;;;20.73;34.68;100753.72;5038529;28;45328;-73
2023/03/06 05:27:23;;;;;;;;;4.50;4.50;;;;;20.73;34.72;100751.09;5038264;28;45339;-73
2023/03/06 05:29:48;;;;;;;;;4.00;4.00;;;;;20.72;34.76;100750.25;5041795;28;45537;-73
2023/03/06 05:32:15;;;;;;;;;5.75;5.75;;;;;20.74;34.76;100752.72;5037962;28;46163;-74
2023/03/06 05:34:40;;;;;;;;;3.75;3.75;;;;;20.73;34.58;100757.19;5042646;28;45412;-73
2023/03/06 05:37:06;;;;;;;;;5.50;3.25;;;;;20.64;34.91;100745.00;5037890;28;45458;-73
2023/03/06 05:39:31;;;;;;;;;5.00;5.00;;;;;20.75;34.78;100751.72;5037575;28;45526;-73
2023/03/06 05:41:56;;;;;;;;;3.75;3.75;;;;;20.76;34.62;100758.69;5037345;28;45505;-73
2023/03/06 05:44:22;;;;;;;;;5.50;5.50;;;;;20.76;34.46;100753.38;5037420;28;45424;-73
2023/03/06 05:46:49;;;;;;;;;5.75;5.50;;;;;20.76;34.89;100752.56;5037960;28;45453;-73
2023/03/06 05:49:14;;;;;;;;;6.75;5.00;;;;;20.66;34.87;100735.06;5037760;28;45556;-73
2023/03/06 05:51:39;;;;;;;;;3.75;3.75;;;;;20.72;34.78;100733.56;5037360;28;46989;-74
2023/03/06 05:54:05;;;;;;;;;4.00;4.00;;;;;20.76;34.79;100741.97;5042805;28;45390;-73
2023/03/06 05:56:30;;;;;;;;;6.75;5.50;;;;;20.76;34.66;100739.34;5037465;28;45430;-73
2023/03/06 05:58:55;;;;;;;;;5.75;5.50;;;;;20.73;34.83;100740.50;5043319;28;45408;-74
2023/03/06 06:01:21;;;;;;;;;4.75;4.75;;;;;20.74;34.74;100747.44;5037338;28;46068;-73
2023/03/06 06:03:46;;;;;;;;;5.00;5.00;;;;;20.74;34.86;100740.31;5045064;28;45409;-73
2023/03/06 06:06:14;;;;;;;;;6.00;4.00;;;;;20.73;34.68;100741.34;5037082;28;45319;-73
2023/03/06 06:08:40;;;;;;;;;4.00;4.00;;;;;20.73;34.83;100740.50;5037683;28;45275;-74
2023/03/06 06:11:10;;;;;;;;;6.00;6.00;;;;;20.73;34.70;100740.50;5036707;28;46317;-73
2023/03/06 06:13:37;;;;;;;;;5.50;4.25;;;;;20.70;34.78;100736.41;5036585;28;45393;-73
2023/03/06 06:16:10;;;;;;;;;6.50;5.25;;;;;20.72;34.42;100737.03;5036809;28;45444;-73
2023/03/06 06:18:36;;;;;;;;;7.00;5.00;;;;;20.73;34.77;100737.88;5019320;28;45571;-74
2023/03/06 06:21:06;;;;;;;;;5.25;4.50;;;;;20.72;34.58;100744.97;5037435;28;45506;-73
2023/03/06 06:23:32;;;;;;;;;4.75;4.75;;;;;20.53;34.62;100714.53;5042997;28;45498;-74
2023/03/06 06:26:02;;;;;;;;;4.50;3.00;;;;;20.69;34.46;100740.03;5019049;28;45464;-73
2023/03/06 06:28:29;;;;;;;;;6.00;5.25;;;;;20.70;34.87;100757.53;5037149;28;45395;-73
2023/03/06 06:30:55;;;;;;;;;5.00;4.00;;;;;20.70;34.57;100759.34;5036078;28;45388;-74
2023/03/06 06:33:20;;;;;;;;;5.50;5.25;;;;;20.70;34.75;100754.06;5037234;28;45273;-73
2023/03/06 06:35:45;;;;;;;;;2.50;1.75;;;;;20.65;34.45;100748.47;5042430;28;45668;-73
2023/03/06 06:38:11;;;;;;;;;4.75;4.75;;;;;20.69;34.49;100760.34;5036527;28;45228;-74
2023/03/06 06:40:36;;;;;;;;;9.25;5.25;;;;;20.68;34.70;100762.19;5037056;28;45933;-72
2023/03/06 06:43:01;;;;;;;;;5.50;4.50;;;;;20.69;34.77;100758.53;5036663;28;45503;-73
2023/03/06 06:45:26;;;;;;;;;5.75;4.50;;;;;20.69;34.61;100757.69;5036872;28;45401;-74
2023/03/06 06:47:52;;;;;;;;;3.00;3.00;;;;;20.68;34.97;100753.44;5036614;28;45326;-75
2023/03/06 06:50:18;;;;;;;;;4.00;4.00;;;;;20.69;35.04;100758.53;5031673;28;45381;-74
2023/03/06 06:52:43;;;;;;;;;2.75;2.75;;;;;20.67;34.83;100747.31;5030073;28;45501;-75
2023/03/06 06:55:10;;;;;;;;;2.75;2.75;;;;;20.71;34.94;100748.59;5032952;28;45756;-75
2023/03/06 06:57:35;;;;;;;;;3.00;3.00;;;;;20.72;35.14;100755.53;5029131;28;45525;-75
2023/03/06 07:00:01;;;;;;;;;6.50;5.25;;;;;20.73;35.13;100762.50;5027245;28;47122;-73
2023/03/06 07:02:26;;;;;;;;;3.50;3.50;;;;;20.73;35.14;100753.72;5035484;28;45369;-74
2023/03/06 07:04:51;;;;;;;;;3.00;3.00;;;;;20.76;35.24;100753.38;5031850;28;45419;-74
2023/03/06 07:07:16;;;;;;;;;3.00;3.00;;;;;20.77;35.31;100762.94;5015327;28;45636;-74
2023/03/06 07:09:42;;;;;;;;;1.00;1.00;;;;;20.78;35.34;100759.31;5035297;28;46169;-74
2023/03/06 07:12:07;;;;;;;;;4.00;4.00;;;;;20.79;35.15;100760.16;5037619;28;45341;-74
2023/03/06 07:14:33;;;;;;;;;3.75;3.75;;;;;20.79;35.28;100766.25;5029602;28;45291;-74
2023/03/06 07:16:58;;;;;;;;;3.75;3.50;;;;;20.79;35.11;100770.72;5039517;28;45280;-74
2023/03/06 07:19:23;;;;;;;;;4.50;4.25;;;;;20.67;35.19;100743.84;5036220;28;45420;-75
2023/03/06 07:21:49;;;;;;;;;4.50;3.50;;;;;20.76;35.41;100757.84;5025707;28;45264;-76
2023/03/06 07:24:15;;;;;;;;;5.00;4.00;;;;;20.78;35.35;100759.31;5036658;28;45479;-75
2023/03/06 07:26:45;;;;;;;;;2.00;2.00;;;;;20.79;35.20;100762.78;5036168;28;45339;-75
2023/03/06 07:29:10;;;;;;;;;3.75;3.00;;;;;20.78;35.15;100763.78;5040054;28;47112;-72
2023/03/06 07:31:36;;;;;;;;;4.25;4.25;;;;;20.76;35.13;100766.59;5036057;28;45481;-74
2023/03/06 07:34:01;;;;;;;;;4.00;4.00;;;;;20.75;35.17;100764.94;5038165;28;45416;-76
2023/03/06 07:36:26;;;;;;;;;5.00;4.25;;;;;20.76;35.40;100761.31;5034992;28;45578;-73
2023/03/06 07:38:52;;;;;;;;;3.50;3.25;;;;;20.76;35.20;100765.78;5035888;28;46468;-74
2023/03/06 07:41:17;;;;;;;;;4.25;3.75;;;;;20.76;35.58;100763.13;5035457;28;45252;-75
2023/03/06 07:43:44;;;;;;;;;16.25;14.75;;;;;20.65;33.40;100765.16;5028677;28;45392;-77
2023/03/06 07:46:10;;;;;;;;;9.00;8.00;;;;;20.54;33.74;100773.47;5041829;28;45622;-71
2023/03/06 07:48:36;;;;;;;;;7.00;6.25;;;;;20.46;34.23;100761.09;5035759;28;46289;-72
2023/03/06 07:51:04;;;;;;;;;5.50;4.25;;;;;20.49;34.76;100777.47;5035988;28;45467;-72
2023/03/06 07:53:30;;;;;;;;;7.00;7.00;;;;;20.52;35.07;100776.28;5042524;28;45349;-72
2023/03/06 07:55:56;;;;;;;;;3.25;3.25;;;;;20.55;35.32;100772.47;5035551;28;45438;-72
2023/03/06 07:58:21;;;;;;;;;7.50;6.50;;;;;20.55;35.27;100775.97;5039065;28;47331;-72
2023/03/06 08:00:47;;;;;;;;;6.75;6.75;;;;;20.55;35.20;100775.97;5020321;28;45403;-72
2023/03/06 08:03:13;;;;;;;;;6.00;4.75;;;;;20.57;35.17;100771.31;5036190;28;45448;-72
2023/03/06 08:05:39;;;;;;;;;7.25;6.25;;;;;20.57;35.30;100776.59;5035423;28;45366;-72
2023/03/06 08:08:04;;;;;;;;;6.75;6.75;;;;;20.59;35.47;100782.53;5038809;28;45263;-70
2023/03/06 08:10:30;;;;;;;;;4.75;3.00;;;;;20.57;35.34;100778.41;5039648;28;45341;-72
2023/03/06 08:12:55;;;;;;;;;6.25;3.25;;;;;20.59;35.01;100787.81;5035742;28;45509;-73
2023/03/06 08:15:21;;;;;;;;;6.25;5.50;;;;;20.62;35.04;100790.13;5022178;28;45375;-73
2023/03/06 08:17:46;;;;;;;;;7.00;5.25;;;;;20.62;35.36;100781.38;5034633;28;46047;-72
2023/03/06 08:20:13;;;;;;;;;7.00;6.25;;;;;20.63;35.09;100788.31;5034891;28;45492;-72
2023/03/06 08:22:38;;;;;;;;;7.25;5.00;;;;;20.62;35.36;100784.00;5032321;28;45262;-71
2023/03/06 08:25:05;;;;;;;;;4.50;3.75;;;;;20.62;35.13;100784.84;5034731;28;45346;-72
2023/03/06 08:27:33;;;;;;;;;5.00;5.00;;;;;20.62;35.30;100782.19;5035315;28;46412;-72
2023/03/06 08:29:58;;;;;;;;;5.50;5.50;;;;;20.63;35.20;100794.41;5044605;28;45398;-71
2023/03/06 08:32:24;;;;;;;;;3.00;3.00;;;;;20.62;35.31;100789.28;5035230;28;45367;-71
2023/03/06 08:34:49;;;;;;;;;5.00;5.00;;;;;20.54;35.05;100773.47;5035544;28;45541;-71
2023/03/06 08:37:15;;;;;;;;;3.75;3.75;;;;;20.65;34.84;100788.13;5033597;28;45385;-73
2023/03/06 08:39:40;;;;;;;;;8.75;5.75;;;;;20.66;34.99;100787.16;5038462;28;45420;-71
2023/03/06 08:42:06;;;;;;;;;4.25;4.25;;;;;20.67;35.20;100796.72;5035850;28;45403;-72
2023/03/06 08:44:33;;;;;;;;;5.00;5.00;;;;;20.67;35.08;100789.59;5033582;28;45423;-73
2023/03/06 08:46:58;;;;;;;;;6.00;4.25;;;;;20.68;35.21;100787.78;5035143;28;47243;-72
2023/03/06 08:49:24;;;;;;;;;7.00;5.00;;;;;20.69;35.19;100792.91;5034996;28;45403;-72
2023/03/06 08:51:50;;;;;;;;;5.50;5.00;;;;;20.63;35.23;100783.81;5034999;28;45324;-72
2023/03/06 08:54:16;;;;;;;;;4.00;4.00;;;;;20.70;35.05;100791.91;5010876;28;45514;-72
2023/03/06 08:56:41;;;;;;;;;0.00;0.00;;;;;20.70;35.21;100793.72;5034980;28;46212;-72
2023/03/06 08:59:08;;;;;;;;;5.00;4.00;;;;;20.70;35.20;100791.09;5035035;28;45450;-71
2023/03/06 09:01:36;;;;;;;;;4.00;4.00;;;;;20.70;35.21;100783.97;5035323;28;45295;-72
2023/03/06 09:04:05;;;;;;;;;5.00;5.00;;;;;20.70;34.88;100781.34;5019085;28;45569;-71
2023/03/06 09:06:34;;;;;;;;;5.50;5.50;;;;;20.71;35.22;100777.69;5034740;28;47350;-70
2023/03/06 09:09:00;;;;;;;;;4.50;4.50;;;;;20.65;35.18;100775.75;5034900;28;45434;-72
2023/03/06 09:11:26;;;;;;;;;5.75;5.25;;;;;20.71;35.41;100790.91;5035024;28;45399;-72
2023/03/06 09:13:52;;;;;;;;;4.75;4.25;;;;;20.70;35.00;100785.78;5033517;28;45453;-72
2023/03/06 09:16:18;;;;;;;;;7.25;6.50;;;;;20.70;35.11;100789.28;5022858;28;46320;-72
2023/03/06 09:18:44;;;;;;;;;4.75;4.75;;;;;20.69;35.55;100792.06;5036213;28;45358;-72
2023/03/06 09:21:09;;;;;;;;;5.00;5.00;;;;;20.70;35.31;100785.78;5034478;28;45296;-71
2023/03/06 09:23:38;;;;;;;;;4.00;4.00;;;;;20.69;35.10;100789.41;5014705;28;45354;-72
2023/03/06 09:26:04;;;;;;;;;5.00;5.00;;;;;20.69;35.01;100784.13;5034741;28;46201;-71
2023/03/06 09:28:30;;;;;;;;;3.00;3.00;;;;;20.69;34.88;100794.72;5039176;28;45742;-70
2023/03/06 09:30:56;;;;;;;;;4.75;4.75;;;;;20.69;35.26;100790.25;5037847;28;45469;-71
2023/03/06 09:33:21;;;;;;;;;4.75;4.00;;;;;20.69;35.13;100790.25;5037824;28;45431;-72
2023/03/06 09:35:50;;;;;;;;;5.25;4.00;;;;;20.66;35.19;100787.16;5042282;28;46139;-72
2023/03/06 09:38:18;;;;;;;;;5.25;4.00;;;;;20.69;35.11;100795.53;5039277;28;45466;-72
2023/03/06 09:40:52;;;;;;;;;5.75;3.50;;;;;20.69;35.08;100795.53;5038312;28;45355;-72
2023/03/06 09:43:24;;;;;;;;;3.75;3.75;;;;;20.65;35.41;100791.59;5026360;28;45372;-72
2023/03/06 09:45:49;;;;;;;;;5.25;4.25;;;;;20.70;35.27;100791.09;5037819;28;47527;-71
2023/03/06 09:48:16;;;;;;;;;5.00;4.00;;;;;20.63;34.96;100783.81;5037527;28;45689;-72
2023/03/06 09:50:54;;;;;;;;;4.25;4.25;;;;;20.68;35.34;100799.19;5037700;28;45454;-72
2023/03/06 09:53:40;;;;;;;;;5.25;4.25;;;;;20.69;35.11;100794.72;5037767;28;45270;-72
2023/03/06 09:56:23;;;;;;;;;4.00;4.00;;;;;20.64;34.92;100782.00;5033920;28;46414;-72
2023/03/06 09:58:58;;;;;;;;;7.00;6.00;;;;;20.69;35.21;100798.19;5040106;28;45256;-72
2023/03/06 10:01:28;;;;;;;;;4.25;4.25;;;;;20.69;35.00;100790.25;5042485;28;45478;-72
2023/03/06 10:04:30;;;;;;;;;4.00;4.00;;;;;20.70;35.06;100791.09;5037669;28;45404;-72
2023/03/06 10:07:00;;;;;;;;;4.50;4.50;;;;;20.70;34.77;100791.09;5037297;28;46693;-72
2023/03/06 10:09:29;;;;;;;;;5.25;4.75;;;;;20.69;34.98;100792.91;5037048;28;45482;-71
2023/03/06 10:12:00;;;;;;;;;4.50;4.50;;;;;20.69;35.01;100792.06;5037643;28;45505;-72
2023/03/06 10:14:36;;;;;;;;;7.00;5.00;;;;;20.70;34.88;100786.63;5031202;28;45503;-72
2023/03/06 10:17:03;;;;;;;;;5.00;3.75;;;;;20.69;34.88;100787.59;5040887;28;46038;-71
2023/03/06 10:19:33;;;;;;;;;4.00;4.00;;;;;20.69;34.93;100792.91;5042213;28;45256;-72
2023/03/06 10:22:35;;;;;;;;;2.75;2.75;;;;;20.71;34.92;100792.75;5037408;28;45426;-72
2023/03/06 10:25:26;;;;;;;;;5.75;4.00;;;;;20.70;34.98;100783.16;5037214;28;45478;-71
2023/03/06 10:28:31;;;;;;;;;4.75;4.75;;;;;20.71;35.08;100782.16;5036743;28;46354;-72
2023/03/06 10:31:10;;;;;;;;;5.75;5.00;;;;;20.71;34.84;100785.59;5036483;28;45347;-71
2023/03/06 10:33:43;;;;;;;;;5.75;4.00;;;;;20.71;34.94;100784.81;5036771;28;45334;-72
2023/03/06 10:36:15;;;;;;;;;4.00;3.50;;;;;20.71;34.92;100792.75;5037103;28;45366;-72
2023/03/06 10:38:43;;;;;;;;;5.75;5.75;;;;;20.71;34.97;100787.47;5035846;28;47073;-72
2023/03/06 10:41:11;;;;;;;;;5.25;4.75;;;;;20.69;34.92;100784.97;5036263;28;45210;-71
2023/03/06 10:43:37;;;;;;;;;4.00;4.00;;;;;20.70;35.13;100786.63;5046336;28;45456;-72
2023/03/06 10:46:04;;;;;;;;;6.00;5.00;;;;;20.70;34.87;100788.44;5036859;28;46137;-72
2023/03/06 10:48:34;;;;;;;;;4.00;4.00;;;;;20.69;34.94;100784.97;5044551;28;46184;-72
2023/03/06 10:51:21;;;;;;;;;5.75;4.75;;;;;20.69;35.01;100781.50;5036621;28;45358;-71
2023/03/06 10:53:52;;;;;;;;;5.25;5.25;;;;;20.69;34.90;100778.84;5044304;28;45694;-72
2023/03/06 10:56:27;;;;;;;;;4.00;3.00;;;;;20.69;34.88;100776.19;5032956;28;45429;-73
2023/03/06 10:59:05;;;;;;;;;5.00;5.00;;;;;20.69;35.00;100773.56;5032702;28;46531;-71
2023/03/06 11:01:31;;;;;;;;;4.00;4.00;;;;;20.68;34.98;100775.41;5024080;28;45432;-72
2023/03/06 11:04:14;;;;;;;;;3.50;3.50;;;;;20.69;34.87;100768.28;5036414;28;45498;-72
2023/03/06 11:06:39;;;;;;;;;4.00;4.00;;;;;20.68;34.99;100769.28;5037059;28;45341;-71
2023/03/06 11:09:14;;;;;;;;;6.00;4.00;;;;;20.67;34.96;100763.16;5042649;28;46029;-71
2023/03/06 11:11:39;;;;;;;;;4.25;4.25;;;;;20.68;35.34;100762.19;5036652;28;45353;-72
2023/03/06 11:14:13;;;;;;;;;4.00;4.00;;;;;20.67;34.92;100759.69;5033241;28;45245;-72
2023/03/06 11:16:39;;;;;;;;;5.00;4.00;;;;;20.62;35.15;100747.84;5020282;28;45325;-72
2023/03/06 11:19:18;;;;;;;;;7.25;5.00;;;;;20.68;34.88;100758.72;5015101;28;46219;-72
2023/03/06 11:22:04;;;;;;;;;4.50;4.50;;;;;20.68;34.96;100764.84;5036410;28;45437;-72
2023/03/06 11:24:36;;;;;;;;;4.25;3.50;;;;;20.68;34.96;100761.34;5036185;28;45374;-72